Pagrindinis puslapis
METAR-TAF:

METAR-TAF

Oro uostai :

Gracas, Austrija

platuma: 47-00N, ilguma: 015-26E, Aukštis: 340 m

Dabartinis oras

Ataskaita buvo paskelbta 36 minutes, ne 00:20 UTC
Vėjas 2 kt iš Rytų/Pietryčių
Temperatūra 6°C
Drėgmė 81%
Slėgis 1013 hPa
Matomumas 10 km arba daugiau
Mažai debesys ne aukštis 7000 ft

METAR: LOWG 290020Z AUTO 11002KT 9999 FEW070 06/03 Q1013

Laikas: 01:56 (00:56 UTC)

Prognozė

Ataskaita buvo paskelbta 1 valandą ir 41 minutes, ne 23:15 UTC
Prognozė galioja nuo 29 metu 00 UTC su 29 metu 24 UTC
Vėjas 5 kt nuo kintamojo kryptimis
Matomumas 10 km arba daugiau
nėra debesų žemiau 1500 m ir nėra kamuolinių lietaus debesų
Laikinai
nuo 29 metu 09 UTC su 29 metu 18 UTC
Vėjas 15 kt iš Šiaurės

TAF: LOWG 282315Z 2900/2924 VRB05KT CAVOK TX15/2913Z TN05/2904Z TEMPO 2909/2918 35015KT

Orai ataskaitas ir orų prognozės (METAR, TAF).

turimą stotys yra geltonos ir raudonos taškus žemėlapyje.

Perkelti pele per norėdami pamatyti stoties vardą.

Tada spustelėkite, norėdami matyti oro stebėjimo ir prognozės.

Norėdami pakeisti žemėlapį: spustelėkite ant žalios mygtukų su juodo kryžiaus žemyn,; žalią mygtuką su brūkšneliu, jei norite nutolinti; arba žalių rodyklių gretimoms žemėlapius.


METAR-TAF: